N07 weather

Lincoln Park Airport
Lincoln Park, New Jersey, United States

Public forecast

Using degrees Fahrenheit for public forecast. Weather courtesy of forecast.io.

METAR (pilot weather report)

Closest report is Essex County Airport, 4.6 nm (8.5 km) SSE. Retrieved 2019/07/18 02:38 UTC (0 seconds ago):

KCDW 180238Z 13006KT 1SM +RA BR OVC025 23/23 A2991 RMK AO2 TSB0158E13 P0127 T02330228

TAF (pilot weather forecast)

Forecast is more than 12 hours old.

Closest forecast is Teterboro Airport, 12.9 nm (23.9 km) ESE. Retrieved 2019/07/17 00:54 UTC (1 day ago):

TAF KTEB 172352Z 1800/1906 25005KT P6SM VCTS SCT050CB BKN060 TEMPO 1800/1802 29025G35KT 2SM +TSRA BKN025CB FM180300 VRB04KT 6SM -SHRA BKN020 OVC040 FM180700 06004KT 4SM -SHRA BR OVC010 FM181000 09006KT 5SM -SHRA BR SCT007 OVC015 TEMPO 1810/1814 2SM BR OVC007 FM181700 10005KT 6SM -SHRA BR SCT015 BKN025 FM182000 10005KT P6SM VCSH SCT025 BKN035 FM190100 VRB05KT P6SM SCT025 BKN035